createdAt,value
2017-04-23T00:00:07.976Z,29.7
2017-04-23T00:01:09.647Z,29.7
2017-04-23T00:02:08.147Z,29.7
2017-04-23T00:03:09.922Z,29.7
2017-04-23T00:04:08.412Z,29.7
2017-04-23T00:05:10.154Z,29.7
2017-04-23T00:06:09.948Z,29.7
2017-04-23T00:07:08.353Z,29.7
2017-04-23T00:08:08.537Z,29.7
2017-04-23T00:09:08.397Z,29.7
2017-04-23T00:10:08.564Z,29.7
2017-04-23T00:11:10.385Z,29.6
2017-04-23T00:12:08.590Z,29.7
2017-04-23T00:13:10.302Z,29.6
2017-04-23T00:14:10.504Z,29.6
2017-04-23T00:15:10.535Z,29.7
2017-04-23T00:16:10.542Z,29.7
2017-04-23T00:17:11.001Z,29.7
2017-04-23T00:18:09.197Z,29.6
2017-04-23T00:19:10.774Z,29.6
2017-04-23T00:20:10.820Z,29.6
2017-04-23T00:21:09.250Z,29.7
2017-04-23T00:22:10.856Z,29.7
2017-04-23T00:23:11.305Z,29.7
2017-04-23T00:24:11.114Z,29.7
2017-04-23T00:25:09.450Z,29.6
2017-04-23T00:26:11.170Z,29.7
2017-04-23T00:27:11.244Z,29.7
2017-04-23T00:28:11.341Z,29.7
2017-04-23T00:29:11.594Z,29.7
2017-04-23T00:30:09.823Z,29.7
2017-04-23T00:31:09.948Z,29.6
2017-04-23T00:32:09.889Z,29.6
2017-04-23T00:33:11.665Z,29.6
2017-04-23T00:34:10.182Z,29.6
2017-04-23T00:35:12.071Z,29.6
2017-04-23T00:36:10.085Z,29.6
2017-04-23T00:37:10.159Z,29.6
2017-04-23T00:38:11.840Z,29.7
2017-04-23T00:39:11.850Z,29.7
2017-04-23T00:40:10.363Z,29.7
2017-04-23T00:41:12.140Z,29.7
2017-04-23T00:42:11.963Z,29.7
2017-04-23T00:43:10.391Z,29.7
2017-04-23T00:44:10.547Z,29.7
2017-04-23T00:45:12.251Z,29.7
2017-04-23T00:46:10.695Z,29.7
2017-04-23T00:47:11.035Z,29.6
2017-04-23T00:48:10.711Z,29.6
2017-04-23T00:49:10.945Z,29.6
2017-04-23T00:50:10.947Z,29.6
2017-04-23T00:51:12.416Z,29.6
2017-04-23T00:52:10.923Z,29.6
2017-04-23T00:53:12.992Z,29.6
2017-04-23T00:54:12.754Z,29.6
2017-04-23T00:55:11.075Z,29.6
2017-04-23T00:56:12.868Z,29.6
2017-04-23T00:57:11.220Z,29.6
2017-04-23T00:58:11.441Z,29.6
2017-04-23T00:59:13.159Z,29.6
2017-04-23T01:00:13.009Z,29.6
2017-04-23T01:01:13.080Z,29.6
2017-04-23T01:02:11.590Z,29.6
2017-04-23T01:03:11.570Z,29.5
2017-04-23T01:04:12.475Z,29.6
2017-04-23T01:05:13.734Z,29.6
2017-04-23T01:06:11.924Z,29.5
2017-04-23T01:07:11.942Z,29.6
2017-04-23T01:08:13.496Z,29.6
2017-04-23T01:09:12.043Z,29.6
2017-04-23T01:10:12.090Z,29.5
2017-04-23T01:11:12.292Z,29.6
2017-04-23T01:12:13.782Z,29.6
2017-04-23T01:13:12.159Z,29.6
2017-04-23T01:14:12.295Z,29.5
2017-04-23T01:15:12.383Z,29.5
2017-04-23T01:16:13.895Z,29.6
2017-04-23T01:17:12.587Z,29.5
2017-04-23T01:18:12.421Z,29.6
2017-04-23T01:19:12.471Z,29.6
2017-04-23T01:20:14.112Z,29.6
2017-04-23T01:21:14.139Z,29.6
2017-04-23T01:22:13.145Z,29.5
2017-04-23T01:23:14.551Z,29.6
2017-04-23T01:24:12.857Z,29.5
2017-04-23T01:25:14.411Z,29.5
2017-04-23T01:26:12.911Z,29.5
2017-04-23T01:27:13.050Z,29.6
2017-04-23T01:28:12.912Z,29.6
2017-04-23T01:29:13.272Z,29.6
2017-04-23T01:30:14.631Z,29.5
2017-04-23T01:31:14.640Z,29.6
2017-04-23T01:32:13.067Z,29.6
2017-04-23T01:33:13.132Z,29.6
2017-04-23T01:34:13.250Z,29.5
2017-04-23T01:35:13.536Z,29.5
2017-04-23T01:36:14.895Z,29.6
2017-04-23T01:37:13.402Z,29.6
2017-04-23T01:38:15.110Z,29.6
2017-04-23T01:39:13.623Z,29.6
2017-04-23T01:40:13.596Z,29.6
2017-04-23T01:41:13.807Z,29.6
2017-04-23T01:42:15.288Z,29.6
2017-04-23T01:43:13.793Z,29.6
2017-04-23T01:44:15.360Z,29.6
2017-04-23T01:45:13.746Z,29.6
2017-04-23T01:46:13.842Z,29.6
2017-04-23T01:47:15.729Z,29.6
2017-04-23T01:48:14.049Z,29.7
2017-04-23T01:49:14.093Z,29.7
2017-04-23T01:50:15.679Z,29.7
2017-04-23T01:51:15.758Z,29.6
2017-04-23T01:52:15.804Z,29.6
2017-04-23T01:53:14.651Z,29.6
2017-04-23T01:54:15.950Z,29.6
2017-04-23T01:55:15.839Z,29.6
2017-04-23T01:56:14.226Z,29.5
2017-04-23T01:57:15.962Z,29.5
2017-04-23T01:58:14.458Z,29.6
2017-04-23T01:59:16.324Z,29.6
2017-04-23T02:00:16.057Z,29.6
2017-04-23T02:01:14.460Z,29.5
2017-04-23T02:02:14.537Z,29.5
2017-04-23T02:03:16.225Z,29.5
2017-04-23T02:04:14.785Z,29.5
2017-04-23T02:05:16.580Z,29.5
2017-04-23T02:06:14.821Z,29.5
2017-04-23T02:07:14.784Z,29.5
2017-04-23T02:08:16.497Z,29.5
2017-04-23T02:09:16.715Z,29.5
2017-04-23T02:10:15.145Z,29.5
2017-04-23T02:11:16.853Z,29.5
2017-04-23T02:12:15.213Z,29.5
2017-04-23T02:13:16.763Z,29.5
2017-04-23T02:14:15.401Z,29.5
2017-04-23T02:15:15.383Z,29.5
2017-04-23T02:16:17.048Z,29.5
2017-04-23T02:17:15.768Z,29.5
2017-04-23T02:18:17.059Z,29.5
2017-04-23T02:19:15.614Z,29.5
2017-04-23T02:20:17.271Z,29.6
2017-04-23T02:21:17.284Z,29.6
2017-04-23T02:22:15.780Z,29.6
2017-04-23T02:23:17.628Z,29.6
2017-04-23T02:24:15.723Z,29.6
2017-04-23T02:25:17.399Z,29.6
2017-04-23T02:26:15.906Z,29.6
2017-04-23T02:27:17.702Z,29.6
2017-04-23T02:28:16.247Z,29.5
2017-04-23T02:29:16.371Z,29.5
2017-04-23T02:30:17.854Z,29.5
2017-04-23T02:31:16.298Z,29.5
2017-04-23T02:32:17.825Z,29.5
2017-04-23T02:33:17.868Z,29.6
2017-04-23T02:34:16.463Z,29.6
2017-04-23T02:35:18.242Z,29.6
2017-04-23T02:36:16.476Z,29.5
2017-04-23T02:37:16.500Z,29.5
2017-04-23T02:38:16.502Z,29.5
2017-04-23T02:39:16.599Z,29.5
2017-04-23T02:40:16.609Z,29.5
2017-04-23T02:41:16.934Z,29.5
2017-04-23T02:42:18.324Z,29.5
2017-04-23T02:43:18.379Z,29.5
2017-04-23T02:44:18.461Z,29.5
2017-04-23T02:45:18.395Z,29.5
2017-04-23T02:46:17.036Z,29.5
2017-04-23T02:47:17.172Z,29.5
2017-04-23T02:48:16.983Z,29.5
2017-04-23T02:49:17.234Z,29.5
2017-04-23T02:50:17.214Z,29.5
2017-04-23T02:51:17.076Z,29.5
2017-04-23T02:52:17.333Z,29.5
2017-04-23T02:53:17.647Z,29.5
2017-04-23T02:54:18.907Z,29.5
2017-04-23T02:55:19.042Z,29.5
2017-04-23T02:56:17.377Z,29.5
2017-04-23T02:57:19.090Z,29.5
2017-04-23T02:58:17.574Z,29.5
2017-04-23T02:59:18.115Z,29.5
2017-04-23T03:00:17.577Z,29.6
2017-04-23T03:01:19.551Z,29.6
2017-04-23T03:02:19.197Z,29.6
2017-04-23T03:03:19.424Z,29.6
2017-04-23T03:04:17.946Z,29.6
2017-04-23T03:05:18.289Z,29.6
2017-04-23T03:06:18.041Z,29.6
2017-04-23T03:07:19.715Z,29.6
2017-04-23T03:08:19.651Z,29.6
2017-04-23T03:09:19.670Z,29.5
2017-04-23T03:10:19.701Z,29.5
2017-04-23T03:11:18.536Z,29.5
2017-04-23T03:12:18.210Z,29.6
2017-04-23T03:13:19.919Z,29.6
2017-04-23T03:14:20.013Z,29.6
2017-04-23T03:15:20.066Z,29.6
2017-04-23T03:16:20.150Z,29.5
2017-04-23T03:17:20.444Z,29.6
2017-04-23T03:18:18.706Z,29.5
2017-04-23T03:19:20.403Z,29.5
2017-04-23T03:20:18.739Z,29.5
2017-04-23T03:21:20.421Z,29.5
2017-04-23T03:22:18.897Z,29.5
2017-04-23T03:23:20.851Z,29.5
2017-04-23T03:24:19.077Z,29.5
2017-04-23T03:25:20.664Z,29.5
2017-04-23T03:26:19.323Z,29.6
2017-04-23T03:27:19.413Z,29.5
2017-04-23T03:28:19.291Z,29.6
2017-04-23T03:29:21.311Z,29.6
2017-04-23T03:30:21.096Z,29.5
2017-04-23T03:31:21.057Z,29.5
2017-04-23T03:32:19.462Z,29.5
2017-04-23T03:33:21.127Z,29.5
2017-04-23T03:34:19.767Z,29.5
2017-04-23T03:35:19.836Z,29.5
2017-04-23T03:36:21.369Z,29.5
2017-04-23T03:37:21.411Z,29.5
2017-04-23T03:38:21.416Z,29.5
2017-04-23T03:39:19.840Z,29.5
2017-04-23T03:40:19.979Z,29.5
2017-04-23T03:41:20.173Z,29.5
2017-04-23T03:42:20.206Z,29.5
2017-04-23T03:43:21.641Z,29.5
2017-04-23T03:44:20.092Z,29.5
2017-04-23T03:45:20.124Z,29.5
2017-04-23T03:46:21.718Z,29.5
2017-04-23T03:47:20.470Z,29.5
2017-04-23T03:48:21.789Z,29.5
2017-04-23T03:49:20.248Z,29.6
2017-04-23T03:50:21.925Z,29.5
2017-04-23T03:51:20.578Z,29.6
2017-04-23T03:52:22.200Z,29.6
2017-04-23T03:53:21.023Z,29.6
2017-04-23T03:54:22.288Z,29.6
2017-04-23T03:55:22.435Z,29.6
2017-04-23T03:56:22.379Z,29.6
2017-04-23T03:57:21.041Z,29.6
2017-04-23T03:58:22.542Z,29.6
2017-04-23T03:59:22.981Z,29.6
2017-04-23T04:00:21.171Z,29.6
2017-04-23T04:01:21.039Z,29.6
2017-04-23T04:02:22.823Z,29.6
2017-04-23T04:03:22.933Z,29.6
2017-04-23T04:04:22.960Z,29.6
2017-04-23T04:05:23.220Z,29.5
2017-04-23T04:06:21.345Z,29.6
2017-04-23T04:07:21.340Z,29.6
2017-04-23T04:08:22.955Z,29.5
2017-04-23T04:09:23.082Z,29.6
2017-04-23T04:10:23.113Z,29.6
2017-04-23T04:11:22.055Z,29.6
2017-04-23T04:12:23.388Z,29.6
2017-04-23T04:13:23.470Z,29.6
2017-04-23T04:14:23.498Z,29.6
2017-04-23T04:15:21.830Z,29.6
2017-04-23T04:16:23.634Z,29.5
2017-04-23T04:17:22.271Z,29.6
2017-04-23T04:18:23.790Z,29.5
2017-04-23T04:19:23.741Z,29.6
2017-04-23T04:20:23.853Z,29.6
2017-04-23T04:21:22.324Z,29.5
2017-04-23T04:22:22.265Z,29.5
2017-04-23T04:23:22.601Z,29.5
2017-04-23T04:24:23.901Z,29.5
2017-04-23T04:25:24.005Z,29.5
2017-04-23T04:26:24.079Z,29.5
2017-04-23T04:27:24.134Z,29.5
2017-04-23T04:28:22.639Z,29.5
2017-04-23T04:29:24.619Z,29.5
2017-04-23T04:30:22.660Z,29.5
2017-04-23T04:31:22.695Z,29.5
2017-04-23T04:32:24.319Z,29.5
2017-04-23T04:33:22.981Z,29.5
2017-04-23T04:34:24.448Z,29.5
2017-04-23T04:35:24.765Z,29.5
2017-04-23T04:36:24.638Z,29.5
2017-04-23T04:37:22.966Z,29.5
2017-04-23T04:38:23.075Z,29.5
2017-04-23T04:39:23.085Z,29.5
2017-04-23T04:40:24.795Z,29.5
2017-04-23T04:41:23.534Z,29.5
2017-04-23T04:42:24.782Z,29.5
2017-04-23T04:43:24.954Z,29.5
2017-04-23T04:44:23.203Z,29.5
2017-04-23T04:45:25.007Z,29.5
2017-04-23T04:46:23.551Z,29.5
2017-04-23T04:47:23.721Z,29.5
2017-04-23T04:48:23.565Z,29.5
2017-04-23T04:49:25.049Z,29.6
2017-04-23T04:50:25.204Z,29.5
2017-04-23T04:51:23.718Z,29.5
2017-04-23T04:52:25.844Z,29.6
2017-04-23T04:53:24.099Z,29.6
2017-04-23T04:54:25.369Z,29.5
2017-04-23T04:55:23.816Z,29.6
2017-04-23T04:56:23.888Z,29.6
2017-04-23T04:57:25.678Z,29.6
2017-04-23T04:58:24.151Z,29.6
2017-04-23T04:59:26.085Z,29.5
2017-04-23T05:00:24.119Z,29.6
2017-04-23T05:01:24.329Z,29.6
2017-04-23T05:02:24.245Z,29.5
2017-04-23T05:03:24.349Z,29.5
2017-04-23T05:04:25.985Z,29.6
2017-04-23T05:05:26.384Z,29.6
2017-04-23T05:06:24.434Z,29.6
2017-04-23T05:07:24.647Z,29.6
2017-04-23T05:08:24.705Z,29.6
2017-04-23T05:09:26.349Z,29.6
2017-04-23T05:10:24.861Z,29.5
2017-04-23T05:11:25.051Z,29.6
2017-04-23T05:12:24.904Z,29.6
2017-04-23T05:13:24.923Z,29.6
2017-04-23T05:14:24.890Z,29.6
2017-04-23T05:15:26.528Z,29.6
2017-04-23T05:16:26.627Z,29.6
2017-04-23T05:17:26.972Z,29.6
2017-04-23T05:18:25.345Z,29.5
2017-04-23T05:19:26.806Z,29.6
2017-04-23T05:20:26.921Z,29.6
2017-04-23T05:21:26.836Z,29.6
2017-04-23T05:22:25.340Z,29.6
2017-04-23T05:23:25.723Z,29.6
2017-04-23T05:24:27.108Z,29.6
2017-04-23T05:25:25.780Z,29.6
2017-04-23T05:26:27.225Z,29.6
2017-04-23T05:27:27.221Z,29.6
2017-04-23T05:28:27.366Z,29.6
2017-04-23T05:29:27.776Z,29.6
2017-04-23T05:30:27.604Z,29.6
2017-04-23T05:31:27.565Z,29.6
2017-04-23T05:32:25.973Z,29.6
2017-04-23T05:33:27.704Z,29.7
2017-04-23T05:34:27.681Z,29.6
2017-04-23T05:35:28.054Z,29.6
2017-04-23T05:36:26.214Z,29.6
2017-04-23T05:37:27.868Z,29.7
2017-04-23T05:38:26.246Z,29.6
2017-04-23T05:39:27.985Z,29.7
2017-04-23T05:40:26.508Z,29.7
2017-04-23T05:41:26.608Z,29.7
2017-04-23T05:42:26.571Z,29.7
2017-04-23T05:43:26.513Z,29.7
2017-04-23T05:44:28.099Z,29.7
2017-04-23T05:45:26.695Z,29.7
2017-04-23T05:46:26.528Z,29.8
2017-04-23T05:47:27.025Z,29.8
2017-04-23T05:48:28.429Z,29.8
2017-04-23T05:49:28.423Z,29.8
2017-04-23T05:50:26.954Z,29.8
2017-04-23T05:51:26.992Z,29.8
2017-04-23T05:52:28.525Z,29.8
2017-04-23T05:53:27.282Z,29.8
2017-04-23T05:54:28.673Z,29.8
2017-04-23T05:55:26.997Z,29.8
2017-04-23T05:56:28.667Z,29.8
2017-04-23T05:57:27.152Z,29.8
2017-04-23T05:58:27.581Z,29.8
2017-04-23T05:59:27.329Z,29.8
2017-04-23T06:00:29.037Z,29.9
2017-04-23T06:01:27.368Z,29.9
2017-04-23T06:02:27.588Z,29.9
2017-04-23T06:03:29.254Z,29.9
2017-04-23T06:04:29.562Z,29.9
2017-04-23T06:05:27.752Z,29.9
2017-04-23T06:06:29.392Z,29.9
2017-04-23T06:07:29.315Z,29.9
2017-04-23T06:08:27.746Z,30
2017-04-23T06:09:27.901Z,30
2017-04-23T06:10:29.823Z,30
2017-04-23T06:11:28.023Z,30
2017-04-23T06:12:27.931Z,30
2017-04-23T06:13:28.155Z,30
2017-04-23T06:14:29.804Z,30
2017-04-23T06:15:29.748Z,30
2017-04-23T06:16:30.029Z,30
2017-04-23T06:17:29.984Z,30.1
2017-04-23T06:18:28.526Z,30.1
2017-04-23T06:19:30.109Z,30.1
2017-04-23T06:20:30.009Z,30.1
2017-04-23T06:21:30.116Z,30.1
2017-04-23T06:22:30.501Z,30.1
2017-04-23T06:23:30.155Z,30.1
2017-04-23T06:24:30.177Z,30.1
2017-04-23T06:25:30.181Z,30.1
2017-04-23T06:26:28.673Z,30.1
2017-04-23T06:27:28.678Z,30.2
2017-04-23T06:28:29.182Z,30.2
2017-04-23T06:29:28.821Z,30.2
2017-04-23T06:30:28.917Z,30.2
2017-04-23T06:31:30.614Z,30.2
2017-04-23T06:32:28.940Z,30.2
2017-04-23T06:33:29.062Z,30.2
2017-04-23T06:34:30.864Z,30.2
2017-04-23T06:35:30.602Z,30.3
2017-04-23T06:36:30.721Z,30.3
2017-04-23T06:37:29.220Z,30.3
2017-04-23T06:38:29.081Z,30.2
2017-04-23T06:39:29.171Z,30.2
2017-04-23T06:40:31.241Z,30.3
2017-04-23T06:41:29.466Z,30.3
2017-04-23T06:42:31.100Z,30.3
2017-04-23T06:43:31.108Z,30.3
2017-04-23T06:44:31.155Z,30.3
2017-04-23T06:45:29.621Z,30.4
2017-04-23T06:46:29.744Z,30.4
2017-04-23T06:47:29.717Z,30.4
2017-04-23T06:48:29.722Z,30.4
2017-04-23T06:49:29.574Z,30.4
2017-04-23T06:50:31.368Z,30.4
2017-04-23T06:51:31.422Z,30.4
2017-04-23T06:52:31.774Z,30.4
2017-04-23T06:53:29.962Z,30.4
2017-04-23T06:54:31.507Z,30.5
2017-04-23T06:55:31.654Z,30.4
2017-04-23T06:56:31.658Z,30.5
2017-04-23T06:57:30.136Z,30.5
2017-04-23T06:58:30.493Z,30.5
2017-04-23T06:59:30.327Z,30.5
2017-04-23T07:00:30.349Z,30.5
2017-04-23T07:01:31.787Z,30.5
2017-04-23T07:02:30.203Z,30.5
2017-04-23T07:03:32.003Z,30.6
2017-04-23T07:04:30.542Z,30.6
2017-04-23T07:05:30.501Z,30.7
2017-04-23T07:06:32.156Z,30.7
2017-04-23T07:07:30.580Z,30.7
2017-04-23T07:08:32.234Z,30.8
2017-04-23T07:09:32.291Z,30.7
2017-04-23T07:10:31.098Z,30.8
2017-04-23T07:11:32.382Z,30.8
2017-04-23T07:12:30.722Z,30.8
2017-04-23T07:13:30.967Z,30.8
2017-04-23T07:14:32.505Z,30.7
2017-04-23T07:15:30.831Z,30.8
2017-04-23T07:16:31.203Z,30.8
2017-04-23T07:17:32.579Z,30.8
2017-04-23T07:18:32.632Z,30.8
2017-04-23T07:19:31.090Z,30.8
2017-04-23T07:20:32.707Z,30.8
2017-04-23T07:21:32.798Z,30.8
2017-04-23T07:22:33.171Z,30.9
2017-04-23T07:23:33.002Z,30.9
2017-04-23T07:24:31.615Z,30.8
2017-04-23T07:25:31.424Z,30.8
2017-04-23T07:26:31.532Z,30.9
2017-04-23T07:27:31.529Z,30.9
2017-04-23T07:28:32.052Z,30.9
2017-04-23T07:29:31.702Z,30.9
2017-04-23T07:30:33.495Z,31
2017-04-23T07:31:33.533Z,31
2017-04-23T07:32:31.994Z,31
2017-04-23T07:33:31.996Z,31
2017-04-23T07:34:33.952Z,30.9
2017-04-23T07:35:32.102Z,30.9
2017-04-23T07:36:33.724Z,30.9
2017-04-23T07:37:32.288Z,30.9
2017-04-23T07:38:33.983Z,31
2017-04-23T07:39:33.854Z,31
2017-04-23T07:40:34.216Z,31
2017-04-23T07:41:34.411Z,31
2017-04-23T07:42:34.238Z,31
2017-04-23T07:43:32.607Z,31.1
2017-04-23T07:44:32.773Z,31.1
2017-04-23T07:45:34.430Z,31.2
2017-04-23T07:46:34.629Z,31.3
2017-04-23T07:47:32.795Z,31.3
2017-04-23T07:48:32.965Z,31.3
2017-04-23T07:49:32.960Z,31.2
2017-04-23T07:50:32.829Z,31.3
2017-04-23T07:51:32.838Z,31.4
2017-04-23T07:52:33.149Z,31.4
2017-04-23T07:53:34.655Z,31.4
2017-04-23T07:54:34.616Z,31.4
2017-04-23T07:55:33.037Z,31.5
2017-04-23T07:56:34.714Z,31.5
2017-04-23T07:57:33.221Z,31.5
2017-04-23T07:58:33.441Z,31.6
2017-04-23T07:59:35.017Z,31.6
2017-04-23T08:00:33.448Z,31.7
2017-04-23T08:01:35.126Z,31.7
2017-04-23T08:02:35.269Z,31.7
2017-04-23T08:03:35.337Z,31.8
2017-04-23T08:04:33.606Z,31.8
2017-04-23T08:05:35.213Z,31.8
2017-04-23T08:06:33.599Z,31.9
2017-04-23T08:07:33.825Z,31.9
2017-04-23T08:08:33.727Z,32
2017-04-23T08:09:33.716Z,32
2017-04-23T08:10:33.953Z,32
2017-04-23T08:11:34.040Z,32.1
2017-04-23T08:12:34.789Z,32.1
2017-04-23T08:13:36.243Z,32.2
2017-04-23T08:14:35.843Z,32.2
2017-04-23T08:15:34.645Z,32.2
2017-04-23T08:16:35.901Z,32.1
2017-04-23T08:17:36.671Z,32.1
2017-04-23T08:18:34.347Z,32
2017-04-23T08:19:36.146Z,31.9
2017-04-23T08:20:36.202Z,31.8
2017-04-23T08:21:34.967Z,31.7
2017-04-23T08:22:34.759Z,31.6
2017-04-23T08:23:36.415Z,31.6
2017-04-23T08:24:36.345Z,31.5
2017-04-23T08:25:35.000Z,31.4
2017-04-23T08:26:36.686Z,31.4
2017-04-23T08:27:37.019Z,31.4
2017-04-23T08:28:36.753Z,31.3
2017-04-23T08:29:36.828Z,31.3
2017-04-23T08:30:35.103Z,31.3
2017-04-23T08:31:35.175Z,31.2
2017-04-23T08:32:36.881Z,31.2
2017-04-23T08:33:37.252Z,31.1
2017-04-23T08:34:35.331Z,31.1
2017-04-23T08:35:35.561Z,31.1
2017-04-23T08:36:37.170Z,31.1
2017-04-23T08:37:37.109Z,31.1
2017-04-23T08:38:37.163Z,31.1
2017-04-23T08:39:37.483Z,31
2017-04-23T08:40:35.856Z,31
2017-04-23T08:41:37.314Z,31
2017-04-23T08:42:37.310Z,30.9
2017-04-23T08:43:35.916Z,30.9
2017-04-23T08:44:37.392Z,30.9
2017-04-23T08:45:37.697Z,30.9
2017-04-23T08:46:35.979Z,30.9
2017-04-23T08:47:35.997Z,30.9
2017-04-23T08:48:36.094Z,30.9
2017-04-23T08:49:35.890Z,30.8
2017-04-23T08:50:37.560Z,30.8
2017-04-23T08:51:37.963Z,30.8
2017-04-23T08:52:37.783Z,30.7
2017-04-23T08:53:36.260Z,30.8
2017-04-23T08:54:36.214Z,30.7
2017-04-23T08:55:36.213Z,30.7
2017-04-23T08:56:36.453Z,30.7
2017-04-23T08:57:38.481Z,30.7
2017-04-23T08:58:36.581Z,30.7
2017-04-23T08:59:36.523Z,30.7
2017-04-23T09:00:36.541Z,30.7
2017-04-23T09:01:38.265Z,30.7
2017-04-23T09:02:36.823Z,30.7
2017-04-23T09:03:38.560Z,30.7
2017-04-23T09:04:38.390Z,30.7
2017-04-23T09:05:36.905Z,30.7
2017-04-23T09:06:38.492Z,30.6
2017-04-23T09:07:36.978Z,30.6
2017-04-23T09:08:38.560Z,30.6
2017-04-23T09:09:37.286Z,30.6
2017-04-23T09:10:38.784Z,30.6
2017-04-23T09:11:38.899Z,30.7
2017-04-23T09:12:37.403Z,30.8
2017-04-23T09:13:37.439Z,30.8
2017-04-23T09:14:39.013Z,30.8
2017-04-23T09:15:37.622Z,30.9
2017-04-23T09:16:37.540Z,31
2017-04-23T09:17:39.234Z,31
2017-04-23T09:18:39.304Z,31.1
2017-04-23T09:19:39.304Z,31.2
2017-04-23T09:20:39.413Z,31.3
2017-04-23T09:21:39.558Z,31.5
2017-04-23T09:22:37.691Z,31.7
2017-04-23T09:23:37.925Z,31.9
2017-04-23T09:24:37.986Z,32
2017-04-23T09:25:39.638Z,32.1
2017-04-23T09:26:39.593Z,32.1
2017-04-23T09:27:39.971Z,32.3
2017-04-23T09:28:39.691Z,32.4
2017-04-23T09:29:39.695Z,32.5
2017-04-23T09:30:39.875Z,32.5
2017-04-23T09:31:38.280Z,32.5
2017-04-23T09:32:38.279Z,32.6
2017-04-23T09:33:40.318Z,32.5
2017-04-23T09:34:38.486Z,32.5
2017-04-23T09:35:38.398Z,32.5
2017-04-23T09:36:38.663Z,32.4
2017-04-23T09:37:38.688Z,32.3
2017-04-23T09:38:40.135Z,32.2
2017-04-23T09:39:40.449Z,32.1
2017-04-23T09:40:40.192Z,32
2017-04-23T09:41:38.772Z,31.9
2017-04-23T09:42:38.897Z,31.9
2017-04-23T09:43:38.974Z,31.8
2017-04-23T09:44:38.805Z,31.8
2017-04-23T09:45:40.823Z,31.8
2017-04-23T09:46:40.558Z,31.8
2017-04-23T09:47:39.116Z,31.9
2017-04-23T09:48:39.057Z,32
2017-04-23T09:49:40.777Z,32
2017-04-23T09:50:40.712Z,32.1
2017-04-23T09:51:39.562Z,32.2
2017-04-23T09:52:39.319Z,32.3
2017-04-23T09:53:40.920Z,32.3
2017-04-23T09:54:39.246Z,32.4
2017-04-23T09:55:39.406Z,32.5
2017-04-23T09:56:39.421Z,32.7
2017-04-23T09:57:39.662Z,32.8
2017-04-23T09:58:39.609Z,32.9
2017-04-23T09:59:39.634Z,33
2017-04-23T10:00:41.172Z,33.1
2017-04-23T10:01:39.709Z,33.1
2017-04-23T10:02:41.277Z,33.1
2017-04-23T10:03:40.116Z,33.1
2017-04-23T10:04:39.914Z,33.1
2017-04-23T10:05:39.957Z,33
2017-04-23T10:06:39.912Z,32.9
2017-04-23T10:07:41.522Z,32.8
2017-04-23T10:08:39.957Z,32.8
2017-04-23T10:09:41.851Z,32.8
2017-04-23T10:10:40.250Z,32.7
2017-04-23T10:11:40.124Z,32.8
2017-04-23T10:12:40.227Z,32.8
2017-04-23T10:13:41.866Z,32.9
2017-04-23T10:14:40.407Z,33
2017-04-23T10:15:40.590Z,33
2017-04-23T10:16:42.070Z,33.1
2017-04-23T10:17:40.494Z,33.2
2017-04-23T10:18:40.696Z,33.3
2017-04-23T10:19:42.228Z,33.3
2017-04-23T10:20:42.198Z,33.4
2017-04-23T10:21:42.597Z,33.3
2017-04-23T10:22:40.814Z,33.1
2017-04-23T10:23:40.683Z,32.9
2017-04-23T10:24:40.921Z,32.8
2017-04-23T10:25:42.576Z,32.6
2017-04-23T10:26:40.939Z,32.5
2017-04-23T10:27:41.371Z,32.4
2017-04-23T10:28:42.636Z,32.3
2017-04-23T10:29:41.138Z,32.2
2017-04-23T10:30:41.298Z,32.1
2017-04-23T10:31:42.757Z,32
2017-04-23T10:32:41.312Z,31.9
2017-04-23T10:33:43.333Z,31.9
2017-04-23T10:34:41.536Z,31.8
2017-04-23T10:35:43.154Z,31.8
2017-04-23T10:36:41.687Z,31.8
2017-04-23T10:37:41.597Z,31.7
2017-04-23T10:38:43.362Z,31.7
2017-04-23T10:47:46.143Z,31.2
2017-04-23T10:48:44.128Z,31.2
2017-04-23T10:49:44.133Z,31.2
2017-04-23T10:50:45.942Z,31.2
2017-04-23T10:51:44.229Z,31.1
2017-04-23T10:52:44.487Z,31.2
2017-04-23T10:53:46.204Z,31.2
2017-04-23T10:54:44.317Z,31.1
2017-04-23T10:55:44.397Z,31.1
2017-04-23T10:56:46.189Z,31.1
2017-04-23T10:57:46.254Z,31.1
2017-04-23T10:58:46.114Z,31.1
2017-04-23T10:59:46.507Z,31.1
2017-04-23T11:00:44.709Z,31.1
2017-04-23T11:01:44.740Z,31.1
2017-04-23T11:02:46.390Z,31
2017-04-23T11:03:44.796Z,31.1
2017-04-23T11:04:46.621Z,31
2017-04-23T11:05:45.258Z,31
2017-04-23T11:06:45.198Z,31
2017-04-23T11:07:46.753Z,31
2017-04-23T11:08:45.212Z,31
2017-04-23T11:09:45.361Z,31
2017-04-23T11:10:46.830Z,31
2017-04-23T11:11:47.170Z,31
2017-04-23T11:12:45.429Z,30.9
2017-04-23T11:13:45.531Z,30.9
2017-04-23T11:14:47.089Z,30.9
2017-04-23T11:15:45.626Z,30.9
2017-04-23T11:16:45.470Z,30.9
2017-04-23T11:17:45.752Z,30.9
2017-04-23T11:18:47.262Z,30.9
2017-04-23T11:19:47.199Z,30.9
2017-04-23T11:20:45.756Z,30.9
2017-04-23T11:21:47.221Z,30.8
2017-04-23T11:22:45.633Z,30.8
2017-04-23T11:23:47.578Z,30.8
2017-04-23T11:24:45.788Z,30.8
2017-04-23T11:25:47.493Z,30.8
2017-04-23T11:26:46.060Z,30.9
2017-04-23T11:27:47.662Z,30.9
2017-04-23T11:28:47.685Z,30.9
2017-04-23T11:29:47.981Z,30.9
2017-04-23T11:30:47.742Z,30.9
2017-04-23T11:31:46.185Z,30.8
2017-04-23T11:32:46.262Z,30.8
2017-04-23T11:33:46.290Z,30.8
2017-04-23T11:34:46.534Z,30.8
2017-04-23T11:35:46.812Z,30.8
2017-04-23T11:36:46.670Z,30.8
2017-04-23T11:37:48.127Z,30.8
2017-04-23T11:38:48.173Z,30.8
2017-04-23T11:39:48.306Z,30.8
2017-04-23T11:40:48.260Z,30.7
2017-04-23T11:41:48.571Z,30.7
2017-04-23T11:42:48.470Z,30.7
2017-04-23T11:43:48.483Z,30.7
2017-04-23T11:44:48.379Z,30.7
2017-04-23T11:45:48.533Z,30.7
2017-04-23T11:46:48.449Z,30.6
2017-04-23T11:47:47.276Z,30.7
2017-04-23T11:48:48.538Z,30.7
2017-04-23T11:49:48.762Z,30.6
2017-04-23T11:50:47.069Z,30.7
2017-04-23T11:51:48.790Z,30.7
2017-04-23T11:52:48.702Z,30.7
2017-04-23T11:53:49.146Z,30.7
2017-04-23T11:54:47.407Z,30.7
2017-04-23T11:55:49.050Z,30.7
2017-04-23T11:56:48.886Z,30.7
2017-04-23T11:57:47.570Z,30.7
2017-04-23T11:58:49.072Z,30.7
2017-04-23T11:59:47.931Z,30.7
2017-04-23T12:00:49.181Z,30.8
2017-04-23T12:01:47.748Z,30.7
2017-04-23T12:02:47.626Z,30.7
2017-04-23T12:03:49.343Z,30.7
2017-04-23T12:04:49.471Z,30.8
2017-04-23T12:05:49.947Z,30.8
2017-04-23T12:06:47.936Z,30.7
2017-04-23T12:07:49.558Z,30.7
2017-04-23T12:08:48.027Z,30.8
2017-04-23T12:09:49.749Z,30.8
2017-04-23T12:10:48.074Z,30.8
2017-04-23T12:11:48.512Z,30.8
2017-04-23T12:12:48.355Z,30.9
2017-04-23T12:13:49.961Z,30.9
2017-04-23T12:14:50.022Z,30.9
2017-04-23T12:15:50.012Z,30.9
2017-04-23T12:16:50.024Z,30.9
2017-04-23T12:17:50.328Z,30.9
2017-04-23T12:18:50.061Z,30.9
2017-04-23T12:19:50.231Z,30.9
2017-04-23T12:20:48.565Z,30.9
2017-04-23T12:21:50.369Z,30.9
2017-04-23T12:22:50.348Z,30.9
2017-04-23T12:23:50.643Z,30.9
2017-04-23T12:24:50.568Z,30.9
2017-04-23T12:25:50.653Z,30.9
2017-04-23T12:26:49.147Z,30.9
2017-04-23T12:27:49.228Z,31
2017-04-23T12:28:51.266Z,30.9
2017-04-23T12:29:49.252Z,31
2017-04-23T12:30:49.294Z,31
2017-04-23T12:31:50.918Z,31
2017-04-23T12:32:51.046Z,30.9
2017-04-23T12:33:49.585Z,30.9
2017-04-23T12:34:51.449Z,30.9
2017-04-23T12:35:51.061Z,30.9
2017-04-23T12:36:51.121Z,30.9
2017-04-23T12:37:51.298Z,30.9
2017-04-23T12:38:49.772Z,30.9
2017-04-23T12:39:49.625Z,30.9
2017-04-23T12:40:51.728Z,30.9
2017-04-23T12:41:49.868Z,30.9
2017-04-23T12:42:51.567Z,30.9
2017-04-23T12:43:51.633Z,31
2017-04-23T12:44:50.093Z,31
2017-04-23T12:45:50.253Z,31.1
2017-04-23T12:46:50.600Z,31.1
2017-04-23T12:47:50.207Z,31.3
2017-04-23T12:58:01.653Z,39.6
2017-04-23T12:59:00.281Z,40.4
2017-04-23T12:59:59.612Z,41.1
2017-04-23T13:00:59.481Z,41.2
2017-04-23T13:02:00.523Z,40.6
2017-04-23T13:03:00.492Z,39.8
2017-04-23T13:03:59.437Z,39.2
2017-04-23T13:04:59.174Z,38.8
2017-04-23T13:06:01.250Z,38.9
2017-04-23T13:07:00.737Z,39.3
2017-04-23T13:07:59.259Z,39.5
2017-04-23T13:08:59.256Z,39
2017-04-23T13:10:00.135Z,38.4
2017-04-23T13:11:01.402Z,37.8
2017-04-23T13:11:59.302Z,37.3
2017-04-23T13:12:59.494Z,36.8
2017-04-23T13:13:59.378Z,36.3
2017-04-23T13:15:01.135Z,35.9
2017-04-23T13:15:59.787Z,35.6
2017-04-23T13:16:59.525Z,35.3
2017-04-23T13:18:01.379Z,35.1
2017-04-23T13:19:00.466Z,34.8
2017-04-23T13:19:59.795Z,34.7
2017-04-23T13:20:59.878Z,34.5
2017-04-23T13:22:01.752Z,34.3
2017-04-23T13:22:59.823Z,34.1
2017-04-23T13:23:59.928Z,34
2017-04-23T13:25:00.095Z,33.8
2017-04-23T13:26:01.644Z,33.6
2017-04-23T13:27:00.121Z,33.5
2017-04-23T13:28:00.547Z,33.4
2017-04-23T13:29:01.782Z,33.2
2017-04-23T13:30:02.568Z,33.1
2017-04-23T13:31:00.277Z,33
2017-04-23T13:32:02.011Z,32.9
2017-04-23T13:33:00.591Z,32.8
2017-04-23T13:34:02.366Z,32.7
2017-04-23T13:35:02.230Z,32.6
2017-04-23T13:36:00.674Z,32.6
2017-04-23T13:37:00.719Z,32.5
2017-04-23T13:38:00.749Z,32.4
2017-04-23T13:39:02.434Z,32.2
2017-04-23T13:40:01.140Z,32.2